createdAt,value
2024-05-09T00:00:56.140Z,85.92
2024-05-09T00:01:56.159Z,86.33
2024-05-09T00:02:56.121Z,86.43
2024-05-09T00:03:56.120Z,86.33
2024-05-09T00:04:56.181Z,86.33
2024-05-09T00:05:56.157Z,86.02
2024-05-09T00:06:56.044Z,86.02
2024-05-09T00:07:56.065Z,85.92
2024-05-09T00:08:56.051Z,85.82
2024-05-09T00:09:56.033Z,85.92
2024-05-09T00:10:56.084Z,86.02
2024-05-09T00:11:56.055Z,86.02
2024-05-09T00:12:55.978Z,86.02
2024-05-09T00:13:56.021Z,86.36
2024-05-09T00:14:55.968Z,86.63
2024-05-09T00:15:55.978Z,86.33
2024-05-09T00:16:55.975Z,86.53
2024-05-09T00:17:56.387Z,86.63
2024-05-09T00:18:56.058Z,86.22
2024-05-09T00:19:55.931Z,86.22
2024-05-09T00:20:56.018Z,86.26
2024-05-09T00:21:55.876Z,86.26
2024-05-09T00:22:55.947Z,86.26
2024-05-09T00:23:55.858Z,86.36
2024-05-09T00:24:55.864Z,86.67
2024-05-09T00:25:55.876Z,87.29
2024-05-09T00:26:55.851Z,86.67
2024-05-09T00:27:55.834Z,87.49
2024-05-09T00:28:55.849Z,88.10
2024-05-09T00:29:55.790Z,87.29
2024-05-09T00:30:55.793Z,87.18
2024-05-09T00:31:55.878Z,86.88
2024-05-09T00:32:55.860Z,86.88
2024-05-09T00:33:55.995Z,88.10
2024-05-09T00:34:55.795Z,87.70
2024-05-09T00:35:55.789Z,87.29
2024-05-09T00:36:55.779Z,88.00
2024-05-09T00:37:55.793Z,87.49
2024-05-09T00:38:55.692Z,87.29
2024-05-09T00:39:55.693Z,87.59
2024-05-09T00:40:55.686Z,88.71
2024-05-09T00:41:55.668Z,87.70
2024-05-09T00:42:55.679Z,86.98
2024-05-09T00:43:55.712Z,86.88
2024-05-09T00:44:55.637Z,86.98
2024-05-09T00:45:55.622Z,86.98
2024-05-09T00:46:55.666Z,87.18
2024-05-09T00:47:55.792Z,87.38
2024-05-09T00:49:01.794Z,87.29
2024-05-09T00:49:55.580Z,87.49
2024-05-09T00:50:55.629Z,87.90
2024-05-09T00:51:55.571Z,87.49
2024-05-09T00:52:55.653Z,87.70
2024-05-09T00:53:55.554Z,87.70
2024-05-09T00:54:55.540Z,87.49
2024-05-09T00:55:55.569Z,87.84
2024-05-09T00:56:55.509Z,87.43
2024-05-09T00:57:55.509Z,87.84
2024-05-09T00:58:55.570Z,87.53
2024-05-09T00:59:55.471Z,87.63
2024-05-09T01:00:55.520Z,87.84
2024-05-09T01:01:55.560Z,87.84
2024-05-09T01:02:55.608Z,87.84
2024-05-09T01:03:55.640Z,87.63
2024-05-09T01:04:55.696Z,87.84
2024-05-09T01:05:55.560Z,87.94
2024-05-09T01:06:55.405Z,87.94
2024-05-09T01:07:55.424Z,88.04
2024-05-09T01:08:55.370Z,88.24
2024-05-09T01:09:55.350Z,88.24
2024-05-09T01:10:55.488Z,88.35
2024-05-09T01:11:55.485Z,88.35
2024-05-09T01:12:55.328Z,89.06
2024-05-09T01:13:55.355Z,89.47
2024-05-09T01:14:55.351Z,88.85
2024-05-09T01:15:55.303Z,88.65
2024-05-09T01:16:55.381Z,88.24
2024-05-09T01:17:55.745Z,88.24
2024-05-09T01:18:55.543Z,88.04
2024-05-09T01:19:55.255Z,88.65
2024-05-09T01:20:55.287Z,88.24
2024-05-09T01:21:55.252Z,87.94
2024-05-09T01:22:55.270Z,88.14
2024-05-09T01:23:55.228Z,88.04
2024-05-09T01:24:55.205Z,88.14
2024-05-09T01:25:55.250Z,88.35
2024-05-09T01:26:55.196Z,88.96
2024-05-09T01:27:55.166Z,89.26
2024-05-09T01:28:55.255Z,88.55
2024-05-09T01:29:55.170Z,88.85
2024-05-09T06:00:54.244Z,86.06
2024-05-09T06:01:54.733Z,84.12
2024-05-09T06:02:54.717Z,85.96
2024-05-09T06:03:54.666Z,86.26
2024-05-09T06:04:54.708Z,83.10
2024-05-09T06:05:54.693Z,85.35
2024-05-09T06:06:54.621Z,87.59
2024-05-09T06:07:54.603Z,86.47
2024-05-09T06:08:54.580Z,84.49
2024-05-09T06:09:54.545Z,87.24
2024-05-09T06:10:54.633Z,86.63
2024-05-09T06:11:54.717Z,84.69
2024-05-09T06:12:54.509Z,84.28
2024-05-09T06:13:54.548Z,82.24
2024-05-09T06:14:54.491Z,84.08
2024-05-09T06:15:54.498Z,83.98
2024-05-09T06:16:57.697Z,83.67
2024-05-09T06:17:54.735Z,84.28
2024-05-09T06:18:54.925Z,84.90
2024-05-09T06:19:54.555Z,85.37
2024-05-09T06:20:54.484Z,83.12
2024-05-09T06:21:54.431Z,86.39
2024-05-09T06:22:54.446Z,87.51
2024-05-09T06:23:54.412Z,86.39
2024-05-09T06:24:54.410Z,84.34
2024-05-09T06:25:54.438Z,82.92
2024-05-09T06:26:54.360Z,84.86
2024-05-09T06:27:54.357Z,83.43
2024-05-09T06:28:54.394Z,84.34
2024-05-09T06:29:54.329Z,84.66
2024-05-09T06:30:54.312Z,84.25
2024-05-09T06:31:55.899Z,84.34
2024-05-09T06:32:54.380Z,84.34
2024-05-09T06:33:54.425Z,83.80
2024-05-09T06:34:54.351Z,85.84
2024-05-09T06:35:54.261Z,85.13
2024-05-09T06:36:54.256Z,83.29
2024-05-09T06:37:54.305Z,83.49
2024-05-09T06:38:54.271Z,84.82
2024-05-09T06:39:54.246Z,82.37
2024-05-09T06:40:54.278Z,85.22
2024-05-09T06:41:54.226Z,86.15
2024-05-09T06:42:54.187Z,82.07
2024-05-09T06:43:54.231Z,82.47
2024-05-09T06:44:54.175Z,83.39
2024-05-09T06:45:54.183Z,82.78
2024-05-09T06:46:57.069Z,82.68
2024-05-09T06:47:54.357Z,84.58
2024-05-09T06:48:54.449Z,79.99
2024-05-09T06:49:54.127Z,80.09
2024-05-09T06:50:54.177Z,83.04
2024-05-09T06:51:54.128Z,82.54
2024-05-09T06:52:54.109Z,79.89
2024-05-09T06:53:54.089Z,81.11
2024-05-09T06:54:54.058Z,81.62
2024-05-09T06:55:54.117Z,80.66
2024-05-09T06:56:54.061Z,81.17
2024-05-09T06:57:54.083Z,82.40
2024-05-09T06:58:54.052Z,85.14
2024-05-09T06:59:54.007Z,83.82
2024-05-09T07:00:54.068Z,81.48
2024-05-09T07:01:54.012Z,82.19
2024-05-09T07:02:54.022Z,83.92
2024-05-09T07:03:54.182Z,81.48
2024-05-09T07:05:00.047Z,82.40
2024-05-09T07:08:20.574Z,80.46
2024-05-09T07:09:22.312Z,81.38
2024-05-09T07:10:28.883Z,81.88
2024-05-09T07:11:21.562Z,82.40
2024-05-09T07:12:21.525Z,82.90
2024-05-09T07:13:21.460Z,82.56
2024-05-09T07:14:21.508Z,81.95
2024-05-09T07:15:21.433Z,81.95
2024-05-09T07:16:21.428Z,80.83
2024-05-09T07:17:21.944Z,81.24
2024-05-09T07:18:21.630Z,83.78
2024-05-09T07:19:21.456Z,82.05
2024-05-09T07:20:31.640Z,85.00
2024-05-09T07:21:21.372Z,83.78
2024-05-09T07:22:21.373Z,84.70
2024-05-09T07:23:21.416Z,84.50
2024-05-09T07:24:21.324Z,82.76
2024-05-09T07:25:21.334Z,81.65
2024-05-09T07:26:21.371Z,81.60
2024-05-09T07:27:21.304Z,82.12
2024-05-09T07:28:21.388Z,80.49
2024-05-09T07:29:21.330Z,80.79
2024-05-09T07:30:27.559Z,82.21
2024-05-09T07:31:21.265Z,84.35
2024-05-09T07:32:21.370Z,84.66
2024-05-09T07:33:23.020Z,85.47
2024-05-09T07:34:21.518Z,81.81
2024-05-09T07:35:21.235Z,82.01
2024-05-09T07:36:21.210Z,80.76
2024-05-09T07:37:21.184Z,79.84
2024-05-09T07:38:21.248Z,78.92
2024-05-09T07:39:21.162Z,80.96
2024-05-09T07:40:31.820Z,80.96
2024-05-09T07:41:21.219Z,79.23
2024-05-09T07:42:21.140Z,78.21
2024-05-09T07:43:21.117Z,80.51
2024-05-09T07:44:21.144Z,78.99
2024-05-09T07:45:40.117Z,77.77
2024-05-09T07:48:32.070Z,80.31
2024-05-09T07:52:22.626Z,79.80
2024-05-09T07:53:42.055Z,80.51
2024-05-09T07:53:53.378Z,80.27
2024-05-09T07:54:44.959Z,81.39
2024-05-09T07:55:44.830Z,81.79
2024-05-09T07:56:44.878Z,81.70
2024-05-09T07:57:44.779Z,81.39
2024-05-09T07:58:44.759Z,81.90
2024-05-09T07:59:44.751Z,81.49
2024-05-09T08:00:44.875Z,83.53
2024-05-09T08:01:44.777Z,78.34
2024-05-09T08:02:44.740Z,77.83
2024-05-09T08:03:44.949Z,78.95
2024-05-09T08:04:44.780Z,78.14
2024-05-09T08:05:44.731Z,79.32
2024-05-09T08:06:44.691Z,78.61
2024-05-09T08:07:44.635Z,81.96
2024-05-09T08:08:44.640Z,79.42
2024-05-09T08:09:44.658Z,80.44
2024-05-09T08:10:44.803Z,81.05
2024-05-09T08:11:44.633Z,81.45
2024-05-09T08:12:44.619Z,79.52
2024-05-09T08:13:44.586Z,76.68
2024-05-09T08:14:44.582Z,76.37
2024-05-09T08:15:44.740Z,79.22
2024-05-09T08:16:44.531Z,79.72
2024-05-09T08:17:44.626Z,79.32
2024-05-09T08:18:44.637Z,77.80
2024-05-09T08:19:44.594Z,78.27
2024-05-09T08:20:44.499Z,78.37
2024-05-09T08:21:44.541Z,79.28
2024-05-09T08:22:44.487Z,77.76
2024-05-09T08:23:44.448Z,77.25
2024-05-09T08:24:44.473Z,77.25
2024-05-09T08:25:44.519Z,76.03
2024-05-09T08:26:44.430Z,75.22
2024-05-09T08:27:44.480Z,76.00
2024-05-09T08:28:44.404Z,75.59
2024-05-09T08:29:44.486Z,76.10
2024-05-09T08:30:44.678Z,77.72
2024-05-09T08:31:44.592Z,76.10
2024-05-09T08:32:44.490Z,77.01
2024-05-09T08:33:44.687Z,79.41
2024-05-09T08:34:44.423Z,78.91
2024-05-09T08:35:44.360Z,76.98
2024-05-09T08:36:44.345Z,76.57
2024-05-09T08:37:44.377Z,76.27
2024-05-09T08:38:44.313Z,74.48
2024-05-09T08:39:44.347Z,76.31
2024-05-09T08:40:44.548Z,76.67
2024-05-09T08:41:44.285Z,74.24
2024-05-09T08:42:44.309Z,75.35
2024-05-09T08:43:44.315Z,76.06
2024-05-09T08:44:44.232Z,75.05
2024-05-09T08:45:45.366Z,76.57
2024-05-09T08:46:44.245Z,75.05
2024-05-09T08:47:44.322Z,72.31
2024-05-09T08:48:44.516Z,74.24
2024-05-09T08:49:44.215Z,77.79
2024-05-09T08:50:45.405Z,74.04
2024-05-09T08:51:44.237Z,76.06
2024-05-09T08:52:44.161Z,78.97
2024-05-09T08:53:44.149Z,72.38
2024-05-09T08:54:44.207Z,77.45
2024-05-09T08:55:44.623Z,73.70
2024-05-09T08:56:44.097Z,72.38
2024-05-09T08:57:44.163Z,74.30
2024-05-09T08:58:44.090Z,70.65
2024-05-09T08:59:44.084Z,67.72
2024-05-09T09:00:44.334Z,67.92
2024-05-09T09:01:44.221Z,70.86
2024-05-09T09:02:44.387Z,68.73
2024-05-09T09:03:44.257Z,71.26
2024-05-09T09:04:44.183Z,66.91
2024-05-09T09:05:44.110Z,70.42
2024-05-09T09:06:44.175Z,73.16
2024-05-09T09:07:43.993Z,70.93
2024-05-09T09:08:44.005Z,68.49
2024-05-09T09:09:44.075Z,68.29
2024-05-09T09:10:44.125Z,71.00
2024-05-09T09:11:43.990Z,72.01
2024-05-09T09:12:43.980Z,72.92
2024-05-09T09:13:43.930Z,72.92
2024-05-09T09:14:43.962Z,73.12
2024-05-09T09:15:43.955Z,69.17
2024-05-09T09:16:43.911Z,70.29
2024-05-09T09:17:44.022Z,67.05
2024-05-09T09:18:44.175Z,71.70
2024-05-09T09:19:43.954Z,70.69
2024-05-09T09:20:44.038Z,67.96
2024-05-09T09:21:43.932Z,66.20
2024-05-09T09:22:43.828Z,65.39
2024-05-09T09:23:43.832Z,65.19
2024-05-09T09:24:44.612Z,68.84
2024-05-09T09:25:43.847Z,68.33
2024-05-09T09:26:43.786Z,67.11
2024-05-09T09:27:43.788Z,66.30
2024-05-09T09:28:43.755Z,65.16
2024-05-09T09:29:43.756Z,65.06
2024-05-09T09:30:43.783Z,68.40
2024-05-09T09:31:43.743Z,69.41
2024-05-09T09:32:43.808Z,66.98
2024-05-09T09:33:43.939Z,66.07
2024-05-09T09:34:43.789Z,67.18
2024-05-09T09:35:43.703Z,74.03
2024-05-09T09:36:43.762Z,66.85
2024-05-09T09:37:43.669Z,68.47
2024-05-09T09:38:43.678Z,68.77
2024-05-09T09:39:43.704Z,65.03
2024-05-09T09:40:48.268Z,65.73
2024-05-09T09:41:43.635Z,65.13
2024-05-09T09:42:43.655Z,67.96
2024-05-09T09:43:43.608Z,62.70
2024-05-09T09:44:47.877Z,65.23
2024-05-09T09:45:43.850Z,60.98
2024-05-09T09:46:43.578Z,64.83
2024-05-09T09:47:43.792Z,64.02
2024-05-09T09:48:43.656Z,65.73
2024-05-09T09:49:43.644Z,64.73
2024-05-09T09:50:43.538Z,72.99
2024-05-09T09:51:43.651Z,68.54
2024-05-09T09:52:43.494Z,66.52
2024-05-09T09:53:43.534Z,65.70
2024-05-09T09:54:43.540Z,65.81
2024-05-09T09:55:43.479Z,65.91
2024-05-09T09:56:43.457Z,64.19
2024-05-09T09:57:43.521Z,63.28
2024-05-09T09:58:43.446Z,60.35
2024-05-09T09:59:43.437Z,62.16
2024-05-09T10:00:43.740Z,68.94
2024-05-09T10:01:43.502Z,65.81
2024-05-09T10:02:43.426Z,60.62
2024-05-09T10:03:44.420Z,65.47
2024-05-09T10:04:44.916Z,63.85
2024-05-09T10:05:46.295Z,60.22
2024-05-09T10:06:43.395Z,59.00
2024-05-09T10:07:43.435Z,59.31
2024-05-09T10:08:43.393Z,60.89
2024-05-09T10:09:43.359Z,61.20
2024-05-09T10:10:43.405Z,62.71
2024-05-09T10:11:49.095Z,62.51
2024-05-09T10:12:43.314Z,59.48
2024-05-09T10:13:43.300Z,62.21
2024-05-09T10:14:43.257Z,62.41
2024-05-09T10:15:43.344Z,60.09
2024-05-09T10:16:43.257Z,60.16
2024-05-09T10:17:43.461Z,65.11
2024-05-09T10:18:43.440Z,60.46
2024-05-09T10:19:43.342Z,62.68
2024-05-09T10:20:43.206Z,62.88
2024-05-09T10:21:43.221Z,61.57
2024-05-09T10:22:43.186Z,60.36
2024-05-09T10:23:43.209Z,67.53
2024-05-09T10:24:43.259Z,64.30
2024-05-09T10:25:43.153Z,62.18
2024-05-09T10:26:43.130Z,63.79
2024-05-09T10:27:43.148Z,65.51
2024-05-09T10:28:43.136Z,65.21
2024-05-09T10:29:43.122Z,65.81
2024-05-09T10:30:43.379Z,69.92
2024-05-09T10:31:43.128Z,63.87
2024-05-09T10:32:43.188Z,64.58
2024-05-09T10:33:58.040Z,63.46
2024-05-09T10:34:55.356Z,61.95
2024-05-09T10:35:43.039Z,62.65
2024-05-09T10:36:43.119Z,62.45
2024-05-09T10:37:43.094Z,60.64
2024-05-09T10:38:43.030Z,63.06
2024-05-09T10:39:43.074Z,62.12
2024-05-09T10:40:43.021Z,64.44
2024-05-09T10:41:42.988Z,62.12
2024-05-09T10:42:43.058Z,65.85
2024-05-09T10:43:42.964Z,64.24
2024-05-09T10:44:42.955Z,65.15
2024-05-09T10:45:42.950Z,62.02
2024-05-09T10:46:42.956Z,60.71
2024-05-09T10:47:43.134Z,62.09
2024-05-09T10:48:43.164Z,61.79
2024-05-09T10:49:42.906Z,68.44
2024-05-09T10:50:42.938Z,63.50
2024-05-09T10:51:42.918Z,59.70
2024-05-09T10:52:42.874Z,62.12
2024-05-09T10:53:42.897Z,60.21
2024-05-09T10:54:42.887Z,66.76
2024-05-09T10:55:42.837Z,59.90
2024-05-09T10:56:42.806Z,63.40
2024-05-09T10:57:42.849Z,61.69
2024-05-09T10:58:42.871Z,62.90
2024-05-09T10:59:42.816Z,60.68
2024-05-09T11:00:42.954Z,60.68
2024-05-09T11:01:42.970Z,62.19
2024-05-09T11:02:43.129Z,63.78
2024-05-09T11:03:43.246Z,63.98
2024-05-09T11:04:42.909Z,62.46
2024-05-09T11:05:43.694Z,63.67
2024-05-09T11:06:42.750Z,60.52
2024-05-09T11:07:42.779Z,61.83
2024-05-09T11:08:42.825Z,65.76
2024-05-09T11:09:42.814Z,61.83
2024-05-09T11:10:42.790Z,64.15
2024-05-09T11:11:42.743Z,63.51
2024-05-09T11:12:42.733Z,64.32
2024-05-09T11:13:42.630Z,62.71
2024-05-09T11:14:42.701Z,61.20
2024-05-09T11:15:42.727Z,60.60
2024-05-09T11:16:42.625Z,61.70
2024-05-09T11:17:42.671Z,57.88
2024-05-09T11:18:42.775Z,57.35
2024-05-09T11:19:42.752Z,62.68
2024-05-09T11:20:42.722Z,60.47
2024-05-09T11:21:42.734Z,61.98
2024-05-09T11:22:42.584Z,59.36
2024-05-09T11:23:42.544Z,60.13
2024-05-09T11:24:42.594Z,62.95
2024-05-09T11:25:42.549Z,60.53
2024-05-09T11:26:42.532Z,62.22
2024-05-09T11:27:42.534Z,61.31
2024-05-09T11:28:42.534Z,63.02
2024-05-09T11:29:42.454Z,57.19
2024-05-09T11:30:42.510Z,58.50
2024-05-09T11:31:42.506Z,56.96
2024-05-09T11:32:42.554Z,58.87
2024-05-09T11:33:42.574Z,60.78
2024-05-09T11:34:42.526Z,59.17
2024-05-09T11:35:42.403Z,64.17
2024-05-09T11:36:42.466Z,56.23
2024-05-09T11:37:42.366Z,55.80
2024-05-09T11:38:42.370Z,55.30
2024-05-09T11:39:42.392Z,58.22
2024-05-09T11:40:42.508Z,58.29
2024-05-09T11:41:42.338Z,61.30
2024-05-09T11:42:42.346Z,61.50
2024-05-09T11:43:42.317Z,62.90
2024-05-09T11:44:42.310Z,58.18
2024-05-09T11:45:42.330Z,55.78
2024-05-09T11:46:42.329Z,58.18
2024-05-09T11:47:42.456Z,60.49
2024-05-09T11:48:42.526Z,57.18
2024-05-09T11:49:42.417Z,55.47
2024-05-09T11:50:42.318Z,55.47
2024-05-09T11:51:42.258Z,56.76
2024-05-09T11:52:42.355Z,56.56
2024-05-09T11:53:42.200Z,57.15
2024-05-09T11:54:42.260Z,55.95
2024-05-09T11:55:42.177Z,61.27
2024-05-09T11:56:42.229Z,56.13
2024-05-09T11:57:42.314Z,57.73
2024-05-09T11:58:42.197Z,62.14
2024-05-09T11:59:42.171Z,59.03
2024-05-09T12:00:42.313Z,54.32
2024-05-09T12:01:42.228Z,60.64
2024-05-09T12:02:42.374Z,55.43
2024-05-09T12:03:42.335Z,57.43
2024-05-09T12:04:43.027Z,55.82
2024-05-09T12:05:42.278Z,53.72
2024-05-09T12:06:42.189Z,53.42
2024-05-09T12:07:42.112Z,54.02
2024-05-09T12:08:42.078Z,54.82
2024-05-09T12:09:42.096Z,56.43
2024-05-09T12:10:42.408Z,53.52
2024-05-09T12:11:42.072Z,54.82
2024-05-09T12:12:42.021Z,50.59
2024-05-09T12:13:41.991Z,59.11
2024-05-09T12:14:41.993Z,57.20
2024-05-09T12:15:42.014Z,56.00
2024-05-09T12:16:42.076Z,52.80
2024-05-09T12:17:42.021Z,53.00
2024-05-09T12:18:42.053Z,56.20
2024-05-09T12:19:41.962Z,53.50
2024-05-09T12:20:41.928Z,53.19
2024-05-09T12:21:41.915Z,56.27
2024-05-09T12:22:41.914Z,54.87
2024-05-09T12:23:41.878Z,59.88
2024-05-09T12:24:41.944Z,51.07
2024-05-09T12:25:41.877Z,55.44
2024-05-09T12:26:41.856Z,53.64
2024-05-09T12:27:41.911Z,57.05
2024-05-09T12:28:41.844Z,53.64
2024-05-09T12:29:41.850Z,54.62
2024-05-09T12:30:42.152Z,60.72
2024-05-09T12:31:41.815Z,52.62
2024-05-09T12:32:41.878Z,55.22
2024-05-09T12:33:41.842Z,52.92
2024-05-09T12:34:41.877Z,56.22
2024-05-09T12:35:44.359Z,54.42
2024-05-09T12:36:41.837Z,56.52
2024-05-09T12:37:41.728Z,56.74
2024-05-09T12:38:41.742Z,57.85
2024-05-09T12:39:41.769Z,52.94
2024-05-09T12:40:41.916Z,57.35
2024-05-09T12:41:41.750Z,55.44
2024-05-09T12:42:41.866Z,57.75
2024-05-09T12:43:41.753Z,53.34
2024-05-09T12:44:41.786Z,55.15
2024-05-09T12:45:41.728Z,52.14
2024-05-09T12:46:41.717Z,51.94
2024-05-09T12:47:41.719Z,54.14
2024-05-09T12:48:41.809Z,59.65
2024-05-09T12:49:41.678Z,55.42
2024-05-09T12:50:42.078Z,51.72
2024-05-09T12:51:41.621Z,55.52
2024-05-09T12:52:41.612Z,52.00
2024-05-09T12:53:41.592Z,51.20
2024-05-09T12:54:41.599Z,52.39
2024-05-09T12:55:48.653Z,50.49
2024-05-09T12:56:41.535Z,48.57
2024-05-09T12:57:41.563Z,50.77
2024-05-09T12:58:42.452Z,58.56
2024-05-09T12:59:41.523Z,51.54
2024-05-09T13:00:41.644Z,49.44
2024-05-09T13:01:41.560Z,48.75
2024-05-09T13:02:41.674Z,50.74
2024-05-09T13:03:41.624Z,52.62
2024-05-09T13:04:41.538Z,47.13
2024-05-09T13:05:41.953Z,52.00
2024-05-09T13:06:41.484Z,49.70
2024-05-09T13:07:41.426Z,49.50
2024-05-09T13:08:41.408Z,46.88
2024-05-09T13:09:41.417Z,49.87
2024-05-09T13:10:41.605Z,47.36
2024-05-09T13:11:41.422Z,52.55
2024-05-09T13:12:41.460Z,51.75
2024-05-09T13:13:41.355Z,51.03
2024-05-09T13:14:41.344Z,52.44
2024-05-09T13:15:41.414Z,52.64
2024-05-09T13:16:41.428Z,49.55
2024-05-09T13:17:41.395Z,45.96
2024-05-09T13:18:41.460Z,49.45
2024-05-09T13:19:41.290Z,51.35
2024-05-09T13:20:41.291Z,52.25
2024-05-09T13:21:41.286Z,49.35
2024-05-09T13:22:41.259Z,48.78
2024-05-09T13:23:41.274Z,51.57
2024-05-09T13:24:41.285Z,49.77
2024-05-09T13:25:41.259Z,49.48
2024-05-09T13:26:41.255Z,48.90
2024-05-09T13:27:41.318Z,52.39
2024-05-09T13:28:41.196Z,53.09
2024-05-09T13:29:44.219Z,50.40
2024-05-09T13:30:42.292Z,52.09
2024-05-09T13:31:41.167Z,49.90
2024-05-09T13:32:41.194Z,54.19
2024-05-09T13:33:41.369Z,53.39
2024-05-09T13:34:41.309Z,46.50
2024-05-09T13:35:45.017Z,49.40
2024-05-09T13:36:41.163Z,49.40
2024-05-09T13:37:41.101Z,49.87
2024-05-09T13:38:41.113Z,45.18
2024-05-09T13:39:41.115Z,45.48
2024-05-09T13:40:41.294Z,49.38
2024-05-09T13:41:41.077Z,52.34
2024-05-09T13:42:41.091Z,46.56
2024-05-09T13:43:41.075Z,47.36
2024-05-09T13:44:41.027Z,46.66
2024-05-09T13:45:41.090Z,50.32
2024-05-09T13:46:41.061Z,51.62
2024-05-09T13:47:41.125Z,46.64
2024-05-09T13:48:41.080Z,49.40
2024-05-09T13:49:41.162Z,51.59
2024-05-09T13:50:40.988Z,51.40
2024-05-09T13:51:40.984Z,47.51
2024-05-09T13:52:40.952Z,49.98
2024-05-09T13:53:40.944Z,48.08
2024-05-09T13:54:40.973Z,45.30
2024-05-09T13:55:41.027Z,45.20
2024-05-09T13:56:40.915Z,51.84
2024-05-09T13:57:40.972Z,51.95
2024-05-09T13:58:40.889Z,51.35
2024-05-09T13:59:40.895Z,55.60
2024-05-09T14:00:46.569Z,51.42
2024-05-09T14:01:41.055Z,53.81
2024-05-09T14:02:41.127Z,49.91
2024-05-09T14:03:41.081Z,52.00
2024-05-09T14:04:40.989Z,53.09
2024-05-09T14:05:40.980Z,51.00
2024-05-09T14:06:40.851Z,47.92
2024-05-09T14:07:40.785Z,52.19
2024-05-09T14:08:40.823Z,52.59
2024-05-09T14:09:40.827Z,57.17
2024-05-09T14:10:40.796Z,53.28
2024-05-09T14:11:40.790Z,51.60
2024-05-09T14:12:40.808Z,51.42
2024-05-09T14:13:40.724Z,49.04
2024-05-09T14:14:40.714Z,56.49
2024-05-09T14:15:40.826Z,57.62
2024-05-09T14:16:40.910Z,51.45
2024-05-09T14:17:40.753Z,48.36
2024-05-09T14:18:40.711Z,53.24
2024-05-09T14:19:40.686Z,52.34
2024-05-09T14:20:40.733Z,52.62
2024-05-09T14:21:40.685Z,54.80
2024-05-09T14:22:40.674Z,52.32
2024-05-09T14:23:40.634Z,51.62
2024-05-09T14:24:40.687Z,47.14
2024-05-09T14:25:42.785Z,52.44
2024-05-09T14:26:40.617Z,52.34
2024-05-09T14:27:40.624Z,53.74
2024-05-09T14:28:40.620Z,47.37
2024-05-09T14:29:40.554Z,52.44
2024-05-09T14:30:40.613Z,53.04
2024-05-09T14:31:40.711Z,51.72
2024-05-09T14:32:40.594Z,49.73
2024-05-09T14:33:40.626Z,49.53
2024-05-09T14:34:40.649Z,51.00
2024-05-09T14:35:40.486Z,49.21
2024-05-09T14:36:40.518Z,51.30
2024-05-09T14:37:40.463Z,50.18
2024-05-09T14:38:40.476Z,48.86
2024-05-09T14:39:40.578Z,55.91
2024-05-09T14:40:43.617Z,50.23
2024-05-09T14:41:40.456Z,49.41
2024-05-09T14:42:40.491Z,51.47
2024-05-09T14:43:40.459Z,52.86
2024-05-09T14:44:40.401Z,52.94
2024-05-09T14:45:40.477Z,54.49
2024-05-09T14:46:40.398Z,54.86
2024-05-09T14:47:40.671Z,51.20
2024-05-09T14:48:40.450Z,50.01
2024-05-09T14:49:40.400Z,50.29
2024-05-09T14:50:41.015Z,51.75
2024-05-09T14:51:40.359Z,54.61
2024-05-09T14:52:40.316Z,51.52
2024-05-09T14:53:40.318Z,55.58
2024-05-09T14:54:40.360Z,54.27
2024-05-09T14:55:41.476Z,56.81
2024-05-09T14:56:40.276Z,53.94
2024-05-09T14:57:40.297Z,55.10
2024-05-09T14:58:40.246Z,47.40
2024-05-09T14:59:40.252Z,52.11
2024-05-09T15:00:43.244Z,51.13
2024-05-09T15:01:40.322Z,50.41
2024-05-09T15:02:40.254Z,51.97
2024-05-09T15:03:40.283Z,51.10
2024-05-09T15:04:40.309Z,51.35
2024-05-09T15:05:40.263Z,49.25
2024-05-09T15:06:40.235Z,54.21
2024-05-09T15:07:40.186Z,51.62
2024-05-09T15:08:40.176Z,49.65
2024-05-09T15:09:40.193Z,47.08
2024-05-09T15:10:40.344Z,52.48
2024-05-09T15:11:40.274Z,57.42
2024-05-09T15:12:40.148Z,49.97
2024-05-09T15:13:40.148Z,53.78
2024-05-09T15:14:40.140Z,50.02
2024-05-09T15:15:40.122Z,52.28
2024-05-09T15:16:40.063Z,50.61
2024-05-09T15:17:40.153Z,49.77
2024-05-09T15:18:43.130Z,51.42
2024-05-09T15:19:40.234Z,54.27
2024-05-09T15:20:40.185Z,51.10
2024-05-09T15:21:40.048Z,43.43
2024-05-09T15:22:39.999Z,43.33
2024-05-09T15:23:40.002Z,53.09
2024-05-09T15:24:42.018Z,49.75
2024-05-09T15:25:40.003Z,51.91
2024-05-09T15:26:39.960Z,45.81
2024-05-09T15:27:39.991Z,48.47
2024-05-09T15:28:39.947Z,53.61
2024-05-09T15:29:39.926Z,49.87
2024-05-09T15:30:42.047Z,48.71
2024-05-09T15:31:39.963Z,51.20
2024-05-09T15:32:39.990Z,43.62
2024-05-09T15:33:40.062Z,51.23
2024-05-09T15:34:39.936Z,49.18
2024-05-09T15:35:40.082Z,49.69
2024-05-09T15:36:41.788Z,51.62
2024-05-09T15:37:39.883Z,40.69
2024-05-09T15:38:39.864Z,47.42
2024-05-09T15:39:39.965Z,45.37
2024-05-09T15:40:40.975Z,53.11
2024-05-09T15:41:39.844Z,51.65
2024-05-09T15:42:41.785Z,51.28
2024-05-09T15:43:39.860Z,49.19
2024-05-09T15:44:39.775Z,47.53
2024-05-09T15:45:40.847Z,44.39
2024-05-09T15:46:39.856Z,48.94
2024-05-09T15:47:39.836Z,50.46
2024-05-09T15:48:42.719Z,48.40
2024-05-09T15:49:39.959Z,49.61
2024-05-09T15:50:41.927Z,45.54
2024-05-09T15:51:39.777Z,50.73
2024-05-09T15:52:39.688Z,44.59
2024-05-09T15:53:39.722Z,47.89
2024-05-09T15:54:39.714Z,50.58
2024-05-09T15:55:39.681Z,47.72
2024-05-09T15:56:39.693Z,44.54
2024-05-09T15:57:39.658Z,45.93
2024-05-09T15:58:39.631Z,46.84
2024-05-09T15:59:39.630Z,45.95
2024-05-09T16:00:42.476Z,44.76
2024-05-09T16:01:39.744Z,46.37
2024-05-09T16:02:39.795Z,47.66
2024-05-09T16:03:39.720Z,50.25
2024-05-09T16:04:39.651Z,51.95
2024-05-09T16:05:40.451Z,45.87
2024-05-09T16:06:39.580Z,49.98
2024-05-09T16:07:39.573Z,48.38
2024-05-09T16:08:39.556Z,42.91
2024-05-09T16:09:39.637Z,45.20
2024-05-09T16:10:41.365Z,43.33
2024-05-09T16:11:39.696Z,51.00
2024-05-09T16:12:39.595Z,48.31
2024-05-09T16:13:39.524Z,52.29
2024-05-09T16:14:39.486Z,44.84
2024-05-09T16:15:39.547Z,47.53
2024-05-09T16:16:39.671Z,44.74
2024-05-09T16:17:39.496Z,47.74
2024-05-09T16:18:39.912Z,46.73
2024-05-09T16:19:39.419Z,46.96
2024-05-09T16:20:41.747Z,49.05
2024-05-09T16:21:39.432Z,46.36
2024-05-09T16:22:39.373Z,52.04
2024-05-09T16:23:39.395Z,50.74
2024-05-09T16:24:39.454Z,48.95
2024-05-09T16:25:39.356Z,48.85
2024-05-09T16:26:39.368Z,52.84
2024-05-09T16:27:39.467Z,44.79
2024-05-09T16:28:39.422Z,49.98
2024-05-09T16:29:39.300Z,47.78
2024-05-09T16:30:39.911Z,48.88
2024-05-09T16:31:39.297Z,50.17
2024-05-09T16:32:39.315Z,50.47
2024-05-09T16:33:39.393Z,49.77
2024-05-09T16:34:39.279Z,46.08
2024-05-09T16:35:39.374Z,51.29
2024-05-09T16:36:39.307Z,47.80
2024-05-09T16:37:39.222Z,51.20
2024-05-09T16:38:39.227Z,52.22
2024-05-09T16:39:39.228Z,47.92
2024-05-09T16:40:41.130Z,51.92
2024-05-09T16:41:39.175Z,48.82
2024-05-09T16:42:39.255Z,48.72
2024-05-09T16:43:39.163Z,48.72
2024-05-09T16:44:39.185Z,47.03
2024-05-09T16:45:39.181Z,46.13
2024-05-09T16:46:39.134Z,48.72
2024-05-09T16:47:39.311Z,53.02
2024-05-09T16:48:39.203Z,49.32
2024-05-09T16:49:39.132Z,48.63
2024-05-09T16:50:39.258Z,53.74
2024-05-09T16:51:39.097Z,48.05
2024-05-09T16:52:39.089Z,49.65
2024-05-09T16:53:39.073Z,46.55
2024-05-09T16:54:39.066Z,45.45
2024-05-09T16:55:39.140Z,48.35
2024-05-09T16:56:39.040Z,51.34
2024-05-09T16:57:39.036Z,52.94
2024-05-09T16:58:39.050Z,54.84
2024-05-09T16:59:39.018Z,52.84
2024-05-09T17:00:42.575Z,48.65
2024-05-09T17:01:39.094Z,50.04
2024-05-09T17:02:39.191Z,50.24
2024-05-09T17:03:39.093Z,48.55
2024-05-09T17:04:39.174Z,55.14
2024-05-09T17:05:39.343Z,47.65
2024-05-09T17:06:38.987Z,48.37
2024-05-09T17:07:38.917Z,47.37
2024-05-09T17:08:38.907Z,48.77
2024-05-09T17:09:38.984Z,47.67
2024-05-09T17:10:39.043Z,50.97
2024-05-09T17:11:38.913Z,52.97
2024-05-09T17:12:38.874Z,48.47
2024-05-09T17:13:38.835Z,50.97
2024-05-09T17:14:38.843Z,55.36
2024-05-09T17:15:38.914Z,46.97
2024-05-09T17:16:38.924Z,47.77
2024-05-09T17:17:38.963Z,48.27
2024-05-09T17:18:38.863Z,46.27
2024-05-09T17:19:38.792Z,44.67
2024-05-09T17:20:38.816Z,46.19
2024-05-09T17:21:38.824Z,49.99
2024-05-09T17:22:38.736Z,45.97
2024-05-09T17:23:38.758Z,56.67
2024-05-09T17:24:38.754Z,47.89
2024-05-09T17:25:38.714Z,52.69
2024-05-09T17:26:38.750Z,47.39
2024-05-09T17:27:38.736Z,51.69
2024-05-09T17:28:38.688Z,49.49
2024-05-09T17:29:38.801Z,46.80